sensor_id;sensor_type;location;lat;lon;timestamp;P1;durP1;ratioP1;P2;durP2;ratioP2
50932;SDS011;36921;49.006;9.292;2023-10-08T00:01:03;9.43;;;4.10;;
50932;SDS011;36921;49.006;9.292;2023-10-08T00:03:31;11.00;;;4.80;;
50932;SDS011;36921;49.006;9.292;2023-10-08T00:05:58;12.45;;;4.95;;
50932;SDS011;36921;49.006;9.292;2023-10-08T00:08:31;8.88;;;4.30;;
50932;SDS011;36921;49.006;9.292;2023-10-08T00:10:56;10.98;;;5.00;;
50932;SDS011;36921;49.006;9.292;2023-10-08T00:13:22;10.38;;;4.47;;
50932;SDS011;36921;49.006;9.292;2023-10-08T00:15:47;8.85;;;4.72;;
50932;SDS011;36921;49.006;9.292;2023-10-08T00:18:19;10.70;;;4.80;;
50932;SDS011;36921;49.006;9.292;2023-10-08T00:20:45;10.60;;;4.78;;
50932;SDS011;36921;49.006;9.292;2023-10-08T00:23:33;9.65;;;4.10;;
50932;SDS011;36921;49.006;9.292;2023-10-08T00:26:00;12.65;;;5.82;;
50932;SDS011;36921;49.006;9.292;2023-10-08T00:28:31;13.00;;;5.53;;
50932;SDS011;36921;49.006;9.292;2023-10-08T00:30:57;9.57;;;4.85;;
50932;SDS011;36921;49.006;9.292;2023-10-08T00:33:23;10.10;;;5.00;;
50932;SDS011;36921;49.006;9.292;2023-10-08T00:35:49;11.75;;;4.82;;
50932;SDS011;36921;49.006;9.292;2023-10-08T00:38:15;12.02;;;4.85;;
50932;SDS011;36921;49.006;9.292;2023-10-08T00:40:41;8.70;;;4.38;;
50932;SDS011;36921;49.006;9.292;2023-10-08T00:45:53;8.00;;;4.35;;
50932;SDS011;36921;49.006;9.292;2023-10-08T00:48:19;10.27;;;4.68;;
50932;SDS011;36921;49.006;9.292;2023-10-08T00:50:47;10.15;;;4.28;;
50932;SDS011;36921;49.006;9.292;2023-10-08T00:53:12;8.90;;;4.03;;
50932;SDS011;36921;49.006;9.292;2023-10-08T00:55:47;12.25;;;4.38;;
50932;SDS011;36921;49.006;9.292;2023-10-08T00:58:19;12.10;;;4.50;;
50932;SDS011;36921;49.006;9.292;2023-10-08T01:00:50;10.73;;;4.22;;
50932;SDS011;36921;49.006;9.292;2023-10-08T01:03:24;9.98;;;4.45;;
50932;SDS011;36921;49.006;9.292;2023-10-08T01:05:51;9.60;;;3.78;;
50932;SDS011;36921;49.006;9.292;2023-10-08T01:08:17;7.22;;;3.55;;
50932;SDS011;36921;49.006;9.292;2023-10-08T01:10:48;8.13;;;4.00;;
50932;SDS011;36921;49.006;9.292;2023-10-08T01:13:14;8.55;;;3.58;;
50932;SDS011;36921;49.006;9.292;2023-10-08T01:15:44;7.32;;;3.85;;
50932;SDS011;36921;49.006;9.292;2023-10-08T01:18:12;8.48;;;3.83;;
50932;SDS011;36921;49.006;9.292;2023-10-08T01:20:43;8.75;;;4.20;;
50932;SDS011;36921;49.006;9.292;2023-10-08T01:23:17;9.80;;;4.55;;
50932;SDS011;36921;49.006;9.292;2023-10-08T01:25:46;8.23;;;4.37;;
50932;SDS011;36921;49.006;9.292;2023-10-08T01:28:38;9.00;;;4.47;;
50932;SDS011;36921;49.006;9.292;2023-10-08T01:31:03;9.05;;;4.47;;
50932;SDS011;36921;49.006;9.292;2023-10-08T01:33:29;10.88;;;5.45;;
50932;SDS011;36921;49.006;9.292;2023-10-08T01:35:56;9.82;;;4.30;;
50932;SDS011;36921;49.006;9.292;2023-10-08T01:38:28;11.38;;;4.53;;
50932;SDS011;36921;49.006;9.292;2023-10-08T01:40:54;8.05;;;4.45;;
50932;SDS011;36921;49.006;9.292;2023-10-08T01:43:21;11.18;;;4.63;;
50932;SDS011;36921;49.006;9.292;2023-10-08T01:45:46;9.77;;;5.25;;
50932;SDS011;36921;49.006;9.292;2023-10-08T01:48:16;14.30;;;5.57;;
50932;SDS011;36921;49.006;9.292;2023-10-08T01:50:45;10.27;;;4.70;;
50932;SDS011;36921;49.006;9.292;2023-10-08T01:53:14;10.82;;;4.63;;
50932;SDS011;36921;49.006;9.292;2023-10-08T01:55:41;10.70;;;4.90;;
50932;SDS011;36921;49.006;9.292;2023-10-08T01:58:17;8.82;;;4.60;;
50932;SDS011;36921;49.006;9.292;2023-10-08T02:00:46;8.98;;;4.43;;
50932;SDS011;36921;49.006;9.292;2023-10-08T02:03:13;13.45;;;4.72;;
50932;SDS011;36921;49.006;9.292;2023-10-08T02:05:41;9.85;;;4.18;;
50932;SDS011;36921;49.006;9.292;2023-10-08T02:08:10;7.25;;;3.33;;
50932;SDS011;36921;49.006;9.292;2023-10-08T02:10:41;8.40;;;3.55;;
50932;SDS011;36921;49.006;9.292;2023-10-08T02:13:08;9.93;;;3.42;;
50932;SDS011;36921;49.006;9.292;2023-10-08T02:15:40;12.15;;;3.40;;
50932;SDS011;36921;49.006;9.292;2023-10-08T02:18:08;8.13;;;3.60;;
50932;SDS011;36921;49.006;9.292;2023-10-08T02:20:33;6.65;;;3.20;;
50932;SDS011;36921;49.006;9.292;2023-10-08T02:22:59;9.23;;;3.55;;
50932;SDS011;36921;49.006;9.292;2023-10-08T02:25:25;7.78;;;3.80;;
50932;SDS011;36921;49.006;9.292;2023-10-08T02:27:50;10.57;;;3.83;;
50932;SDS011;36921;49.006;9.292;2023-10-08T02:30:16;9.77;;;4.30;;
50932;SDS011;36921;49.006;9.292;2023-10-08T02:32:42;10.10;;;4.68;;
50932;SDS011;36921;49.006;9.292;2023-10-08T02:35:08;8.73;;;4.05;;
50932;SDS011;36921;49.006;9.292;2023-10-08T02:37:37;12.82;;;4.30;;
50932;SDS011;36921;49.006;9.292;2023-10-08T02:40:06;10.10;;;4.13;;
50932;SDS011;36921;49.006;9.292;2023-10-08T02:42:43;12.43;;;4.00;;
50932;SDS011;36921;49.006;9.292;2023-10-08T02:45:09;9.68;;;4.28;;
50932;SDS011;36921;49.006;9.292;2023-10-08T02:47:39;7.80;;;4.10;;
50932;SDS011;36921;49.006;9.292;2023-10-08T02:50:06;8.38;;;4.18;;
50932;SDS011;36921;49.006;9.292;2023-10-08T02:52:33;11.02;;;4.05;;
50932;SDS011;36921;49.006;9.292;2023-10-08T02:54:58;9.13;;;4.18;;
50932;SDS011;36921;49.006;9.292;2023-10-08T02:57:25;8.77;;;3.83;;
50932;SDS011;36921;49.006;9.292;2023-10-08T02:59:54;8.88;;;4.00;;
50932;SDS011;36921;49.006;9.292;2023-10-08T03:02:19;8.25;;;4.03;;
50932;SDS011;36921;49.006;9.292;2023-10-08T03:04:46;8.43;;;4.10;;
50932;SDS011;36921;49.006;9.292;2023-10-08T03:07:15;8.73;;;3.80;;
50932;SDS011;36921;49.006;9.292;2023-10-08T03:09:47;6.85;;;3.72;;
50932;SDS011;36921;49.006;9.292;2023-10-08T03:12:15;8.25;;;4.30;;
50932;SDS011;36921;49.006;9.292;2023-10-08T03:14:42;11.57;;;3.58;;
50932;SDS011;36921;49.006;9.292;2023-10-08T03:17:15;6.32;;;3.55;;
50932;SDS011;36921;49.006;9.292;2023-10-08T03:19:45;8.05;;;3.85;;
50932;SDS011;36921;49.006;9.292;2023-10-08T03:22:11;6.72;;;3.28;;
50932;SDS011;36921;49.006;9.292;2023-10-08T03:24:37;6.78;;;3.30;;
50932;SDS011;36921;49.006;9.292;2023-10-08T03:27:03;6.57;;;3.20;;
50932;SDS011;36921;49.006;9.292;2023-10-08T03:29:36;8.13;;;3.50;;
50932;SDS011;36921;49.006;9.292;2023-10-08T03:32:08;8.80;;;3.55;;
50932;SDS011;36921;49.006;9.292;2023-10-08T03:34:39;10.43;;;3.28;;
50932;SDS011;36921;49.006;9.292;2023-10-08T03:37:08;9.82;;;3.42;;
50932;SDS011;36921;49.006;9.292;2023-10-08T03:39:44;9.45;;;3.33;;
50932;SDS011;36921;49.006;9.292;2023-10-08T03:42:20;12.82;;;3.42;;
50932;SDS011;36921;49.006;9.292;2023-10-08T03:44:48;6.18;;;2.85;;
50932;SDS011;36921;49.006;9.292;2023-10-08T03:47:17;12.25;;;3.13;;
50932;SDS011;36921;49.006;9.292;2023-10-08T03:49:48;6.70;;;2.60;;
50932;SDS011;36921;49.006;9.292;2023-10-08T03:52:16;7.32;;;2.75;;
50932;SDS011;36921;49.006;9.292;2023-10-08T03:54:48;7.22;;;2.85;;
50932;SDS011;36921;49.006;9.292;2023-10-08T03:57:20;4.95;;;2.22;;
50932;SDS011;36921;49.006;9.292;2023-10-08T03:59:53;8.43;;;3.22;;
50932;SDS011;36921;49.006;9.292;2023-10-08T04:02:23;6.03;;;3.10;;
50932;SDS011;36921;49.006;9.292;2023-10-08T04:05:05;8.75;;;3.58;;
50932;SDS011;36921;49.006;9.292;2023-10-08T04:07:44;6.63;;;2.95;;
50932;SDS011;36921;49.006;9.292;2023-10-08T04:10:25;12.07;;;3.60;;
50932;SDS011;36921;49.006;9.292;2023-10-08T04:13:14;10.27;;;3.63;;
50932;SDS011;36921;49.006;9.292;2023-10-08T04:15:41;9.00;;;3.67;;
50932;SDS011;36921;49.006;9.292;2023-10-08T04:18:10;8.65;;;3.50;;
50932;SDS011;36921;49.006;9.292;2023-10-08T04:20:38;6.85;;;3.17;;
50932;SDS011;36921;49.006;9.292;2023-10-08T04:23:12;6.03;;;3.53;;
50932;SDS011;36921;49.006;9.292;2023-10-08T04:25:46;5.55;;;3.03;;
50932;SDS011;36921;49.006;9.292;2023-10-08T04:28:12;9.48;;;3.80;;
50932;SDS011;36921;49.006;9.292;2023-10-08T04:30:39;8.15;;;3.55;;
50932;SDS011;36921;49.006;9.292;2023-10-08T04:33:07;7.15;;;3.47;;
50932;SDS011;36921;49.006;9.292;2023-10-08T04:35:44;7.85;;;3.42;;
50932;SDS011;36921;49.006;9.292;2023-10-08T04:40:44;6.60;;;3.40;;
50932;SDS011;36921;49.006;9.292;2023-10-08T04:43:23;7.32;;;3.30;;
50932;SDS011;36921;49.006;9.292;2023-10-08T04:45:55;6.43;;;2.65;;
50932;SDS011;36921;49.006;9.292;2023-10-08T04:48:29;6.63;;;2.75;;
50932;SDS011;36921;49.006;9.292;2023-10-08T04:50:57;4.80;;;2.50;;
50932;SDS011;36921;49.006;9.292;2023-10-08T04:53:26;9.55;;;3.10;;
50932;SDS011;36921;49.006;9.292;2023-10-08T04:55:57;7.43;;;3.55;;
50932;SDS011;36921;49.006;9.292;2023-10-08T04:58:27;7.63;;;3.08;;
50932;SDS011;36921;49.006;9.292;2023-10-08T05:00:59;10.35;;;2.92;;
50932;SDS011;36921;49.006;9.292;2023-10-08T05:03:42;8.32;;;3.15;;
50932;SDS011;36921;49.006;9.292;2023-10-08T05:06:28;8.90;;;3.00;;
50932;SDS011;36921;49.006;9.292;2023-10-08T05:09:04;6.28;;;2.90;;
50932;SDS011;36921;49.006;9.292;2023-10-08T05:11:46;9.95;;;3.22;;
50932;SDS011;36921;49.006;9.292;2023-10-08T05:14:16;8.25;;;3.40;;
50932;SDS011;36921;49.006;9.292;2023-10-08T05:16:56;15.45;;;2.88;;
50932;SDS011;36921;49.006;9.292;2023-10-08T05:19:47;12.55;;;2.80;;
50932;SDS011;36921;49.006;9.292;2023-10-08T05:22:26;6.13;;;2.45;;
50932;SDS011;36921;49.006;9.292;2023-10-08T05:24:54;6.45;;;2.92;;
50932;SDS011;36921;49.006;9.292;2023-10-08T05:27:40;6.88;;;2.80;;
50932;SDS011;36921;49.006;9.292;2023-10-08T05:30:29;7.47;;;2.83;;
50932;SDS011;36921;49.006;9.292;2023-10-08T05:33:07;9.07;;;3.20;;
50932;SDS011;36921;49.006;9.292;2023-10-08T05:35:50;5.70;;;2.88;;
50932;SDS011;36921;49.006;9.292;2023-10-08T05:38:22;5.32;;;2.60;;
50932;SDS011;36921;49.006;9.292;2023-10-08T05:40:49;6.90;;;3.05;;
50932;SDS011;36921;49.006;9.292;2023-10-08T05:43:26;11.35;;;2.95;;
50932;SDS011;36921;49.006;9.292;2023-10-08T05:46:04;6.88;;;2.70;;
50932;SDS011;36921;49.006;9.292;2023-10-08T05:48:48;7.20;;;3.03;;
50932;SDS011;36921;49.006;9.292;2023-10-08T05:51:31;7.03;;;3.05;;
50932;SDS011;36921;49.006;9.292;2023-10-08T05:54:13;9.35;;;3.42;;
50932;SDS011;36921;49.006;9.292;2023-10-08T05:56:56;6.60;;;3.22;;
50932;SDS011;36921;49.006;9.292;2023-10-08T06:02:21;10.05;;;3.47;;
50932;SDS011;36921;49.006;9.292;2023-10-08T06:05:00;12.13;;;3.28;;
50932;SDS011;36921;49.006;9.292;2023-10-08T06:10:26;8.38;;;3.30;;
50932;SDS011;36921;49.006;9.292;2023-10-08T06:15:55;7.47;;;2.92;;
50932;SDS011;36921;49.006;9.292;2023-10-08T06:18:23;8.27;;;2.88;;
50932;SDS011;36921;49.006;9.292;2023-10-08T06:21:02;8.45;;;3.22;;
50932;SDS011;36921;49.006;9.292;2023-10-08T06:23:34;10.68;;;3.20;;
50932;SDS011;36921;49.006;9.292;2023-10-08T06:26:01;6.72;;;3.03;;
50932;SDS011;36921;49.006;9.292;2023-10-08T06:28:40;10.77;;;3.00;;
50932;SDS011;36921;49.006;9.292;2023-10-08T06:31:06;8.02;;;3.00;;
50932;SDS011;36921;49.006;9.292;2023-10-08T06:33:36;8.10;;;3.22;;
50932;SDS011;36921;49.006;9.292;2023-10-08T06:36:06;11.02;;;3.42;;
50932;SDS011;36921;49.006;9.292;2023-10-08T06:38:45;9.77;;;3.40;;
50932;SDS011;36921;49.006;9.292;2023-10-08T06:41:14;6.70;;;2.75;;
50932;SDS011;36921;49.006;9.292;2023-10-08T06:43:43;4.87;;;2.47;;
50932;SDS011;36921;49.006;9.292;2023-10-08T06:46:13;7.90;;;3.15;;
50932;SDS011;36921;49.006;9.292;2023-10-08T06:48:39;7.55;;;3.05;;
50932;SDS011;36921;49.006;9.292;2023-10-08T06:51:08;6.95;;;3.33;;
50932;SDS011;36921;49.006;9.292;2023-10-08T06:53:38;7.93;;;3.67;;
50932;SDS011;36921;49.006;9.292;2023-10-08T06:56:04;9.27;;;2.90;;
50932;SDS011;36921;49.006;9.292;2023-10-08T06:58:30;8.65;;;2.90;;
50932;SDS011;36921;49.006;9.292;2023-10-08T07:00:57;10.07;;;3.25;;
50932;SDS011;36921;49.006;9.292;2023-10-08T07:03:23;6.07;;;3.15;;
50932;SDS011;36921;49.006;9.292;2023-10-08T07:05:50;8.05;;;3.40;;
50932;SDS011;36921;49.006;9.292;2023-10-08T07:08:28;7.53;;;3.13;;
50932;SDS011;36921;49.006;9.292;2023-10-08T07:13:23;7.00;;;3.17;;
50932;SDS011;36921;49.006;9.292;2023-10-08T07:15:49;6.47;;;2.75;;
50932;SDS011;36921;49.006;9.292;2023-10-08T07:18:15;7.45;;;2.97;;
50932;SDS011;36921;49.006;9.292;2023-10-08T07:20:49;6.45;;;2.97;;
50932;SDS011;36921;49.006;9.292;2023-10-08T07:23:25;7.03;;;3.10;;
50932;SDS011;36921;49.006;9.292;2023-10-08T07:25:53;10.32;;;3.35;;
50932;SDS011;36921;49.006;9.292;2023-10-08T07:28:40;5.38;;;3.00;;
50932;SDS011;36921;49.006;9.292;2023-10-08T07:31:16;5.95;;;3.10;;
50932;SDS011;36921;49.006;9.292;2023-10-08T07:33:46;7.07;;;3.10;;
50932;SDS011;36921;49.006;9.292;2023-10-08T07:36:13;6.93;;;2.65;;
50932;SDS011;36921;49.006;9.292;2023-10-08T07:38:43;8.90;;;3.33;;
50932;SDS011;36921;49.006;9.292;2023-10-08T07:41:12;7.68;;;2.35;;
50932;SDS011;36921;49.006;9.292;2023-10-08T07:43:42;7.30;;;3.20;;
50932;SDS011;36921;49.006;9.292;2023-10-08T07:46:08;6.15;;;2.92;;
50932;SDS011;36921;49.006;9.292;2023-10-08T07:48:34;11.55;;;2.72;;
50932;SDS011;36921;49.006;9.292;2023-10-08T07:51:00;8.32;;;3.33;;
50932;SDS011;36921;49.006;9.292;2023-10-08T07:53:26;6.22;;;3.10;;
50932;SDS011;36921;49.006;9.292;2023-10-08T07:56:02;5.90;;;2.60;;
50932;SDS011;36921;49.006;9.292;2023-10-08T07:58:34;6.47;;;3.00;;
50932;SDS011;36921;49.006;9.292;2023-10-08T08:01:07;7.53;;;2.90;;
50932;SDS011;36921;49.006;9.292;2023-10-08T08:03:38;9.77;;;2.95;;
50932;SDS011;36921;49.006;9.292;2023-10-08T08:06:08;7.88;;;3.05;;
50932;SDS011;36921;49.006;9.292;2023-10-08T08:08:37;5.78;;;3.00;;
50932;SDS011;36921;49.006;9.292;2023-10-08T08:11:06;7.75;;;3.25;;
50932;SDS011;36921;49.006;9.292;2023-10-08T08:13:36;5.53;;;2.97;;
50932;SDS011;36921;49.006;9.292;2023-10-08T08:16:03;7.90;;;3.00;;
50932;SDS011;36921;49.006;9.292;2023-10-08T08:18:45;9.88;;;3.60;;
50932;SDS011;36921;49.006;9.292;2023-10-08T08:21:11;7.68;;;3.28;;
50932;SDS011;36921;49.006;9.292;2023-10-08T08:23:44;4.85;;;2.83;;
50932;SDS011;36921;49.006;9.292;2023-10-08T08:26:23;6.07;;;2.85;;
50932;SDS011;36921;49.006;9.292;2023-10-08T08:29:01;7.68;;;2.80;;
50932;SDS011;36921;49.006;9.292;2023-10-08T08:31:28;7.38;;;3.10;;
50932;SDS011;36921;49.006;9.292;2023-10-08T08:33:57;5.43;;;2.85;;
50932;SDS011;36921;49.006;9.292;2023-10-08T08:36:35;7.22;;;3.08;;
50932;SDS011;36921;49.006;9.292;2023-10-08T08:39:04;6.50;;;3.20;;
50932;SDS011;36921;49.006;9.292;2023-10-08T08:41:36;8.18;;;2.67;;
50932;SDS011;36921;49.006;9.292;2023-10-08T08:46:32;7.90;;;3.10;;
50932;SDS011;36921;49.006;9.292;2023-10-08T08:49:04;5.75;;;3.10;;
50932;SDS011;36921;49.006;9.292;2023-10-08T08:51:32;7.90;;;3.00;;
50932;SDS011;36921;49.006;9.292;2023-10-08T08:54:00;6.85;;;3.00;;
50932;SDS011;36921;49.006;9.292;2023-10-08T08:56:31;9.48;;;2.92;;
50932;SDS011;36921;49.006;9.292;2023-10-08T08:58:58;7.20;;;2.60;;
50932;SDS011;36921;49.006;9.292;2023-10-08T09:01:25;5.20;;;2.55;;
50932;SDS011;36921;49.006;9.292;2023-10-08T09:03:51;6.88;;;2.85;;
50932;SDS011;36921;49.006;9.292;2023-10-08T09:06:26;6.80;;;2.95;;
50932;SDS011;36921;49.006;9.292;2023-10-08T09:08:51;4.45;;;2.53;;
50932;SDS011;36921;49.006;9.292;2023-10-08T09:11:20;4.50;;;2.38;;
50932;SDS011;36921;49.006;9.292;2023-10-08T09:13:46;4.40;;;2.60;;
50932;SDS011;36921;49.006;9.292;2023-10-08T09:16:12;4.68;;;2.63;;
50932;SDS011;36921;49.006;9.292;2023-10-08T09:18:44;5.20;;;2.80;;
50932;SDS011;36921;49.006;9.292;2023-10-08T09:21:13;6.15;;;2.58;;
50932;SDS011;36921;49.006;9.292;2023-10-08T09:26:09;4.63;;;2.40;;
50932;SDS011;36921;49.006;9.292;2023-10-08T09:28:36;7.05;;;2.80;;
50932;SDS011;36921;49.006;9.292;2023-10-08T09:31:03;4.53;;;2.47;;
50932;SDS011;36921;49.006;9.292;2023-10-08T09:33:30;8.43;;;2.83;;
50932;SDS011;36921;49.006;9.292;2023-10-08T09:35:55;5.90;;;2.53;;
50932;SDS011;36921;49.006;9.292;2023-10-08T09:38:27;6.05;;;2.40;;
50932;SDS011;36921;49.006;9.292;2023-10-08T09:40:55;9.50;;;2.58;;
50932;SDS011;36921;49.006;9.292;2023-10-08T09:43:20;5.15;;;2.20;;
50932;SDS011;36921;49.006;9.292;2023-10-08T09:45:48;5.80;;;2.40;;
50932;SDS011;36921;49.006;9.292;2023-10-08T09:48:18;5.70;;;2.78;;
50932;SDS011;36921;49.006;9.292;2023-10-08T09:50:47;5.35;;;2.42;;
50932;SDS011;36921;49.006;9.292;2023-10-08T09:53:13;6.82;;;2.70;;
50932;SDS011;36921;49.006;9.292;2023-10-08T09:56:03;5.35;;;2.47;;
50932;SDS011;36921;49.006;9.292;2023-10-08T09:58:31;5.50;;;2.25;;
50932;SDS011;36921;49.006;9.292;2023-10-08T10:00:57;3.70;;;2.10;;
50932;SDS011;36921;49.006;9.292;2023-10-08T10:03:24;6.18;;;2.33;;
50932;SDS011;36921;49.006;9.292;2023-10-08T10:05:51;6.28;;;2.28;;
50932;SDS011;36921;49.006;9.292;2023-10-08T10:08:17;5.68;;;2.40;;
50932;SDS011;36921;49.006;9.292;2023-10-08T10:10:45;4.18;;;2.40;;
50932;SDS011;36921;49.006;9.292;2023-10-08T10:13:12;6.20;;;2.20;;
50932;SDS011;36921;49.006;9.292;2023-10-08T10:15:39;5.75;;;2.72;;
50932;SDS011;36921;49.006;9.292;2023-10-08T10:18:12;4.27;;;2.40;;
50932;SDS011;36921;49.006;9.292;2023-10-08T10:20:40;6.10;;;2.67;;
50932;SDS011;36921;49.006;9.292;2023-10-08T10:31:34;5.47;;;2.50;;
50932;SDS011;36921;49.006;9.292;2023-10-08T10:34:10;7.47;;;2.30;;
50932;SDS011;36921;49.006;9.292;2023-10-08T10:36:38;3.97;;;2.38;;
50932;SDS011;36921;49.006;9.292;2023-10-08T10:39:07;6.70;;;2.45;;
50932;SDS011;36921;49.006;9.292;2023-10-08T10:41:41;6.07;;;2.60;;
50932;SDS011;36921;49.006;9.292;2023-10-08T10:44:11;4.93;;;2.40;;
50932;SDS011;36921;49.006;9.292;2023-10-08T10:46:38;8.10;;;2.63;;
50932;SDS011;36921;49.006;9.292;2023-10-08T10:49:08;4.28;;;2.22;;
50932;SDS011;36921;49.006;9.292;2023-10-08T10:51:47;4.55;;;2.47;;
50932;SDS011;36921;49.006;9.292;2023-10-08T10:54:18;6.95;;;2.63;;
50932;SDS011;36921;49.006;9.292;2023-10-08T10:56:48;4.88;;;2.50;;
50932;SDS011;36921;49.006;9.292;2023-10-08T10:59:28;5.28;;;2.60;;
50932;SDS011;36921;49.006;9.292;2023-10-08T11:02:03;4.35;;;2.47;;
50932;SDS011;36921;49.006;9.292;2023-10-08T11:04:46;5.43;;;2.72;;
50932;SDS011;36921;49.006;9.292;2023-10-08T11:07:15;4.55;;;2.25;;
50932;SDS011;36921;49.006;9.292;2023-10-08T11:09:48;5.18;;;2.67;;
50932;SDS011;36921;49.006;9.292;2023-10-08T11:14:47;6.82;;;2.60;;
50932;SDS011;36921;49.006;9.292;2023-10-08T11:17:15;9.17;;;2.50;;
50932;SDS011;36921;49.006;9.292;2023-10-08T11:19:42;10.00;;;3.22;;
50932;SDS011;36921;49.006;9.292;2023-10-08T11:22:11;9.77;;;3.10;;
50932;SDS011;36921;49.006;9.292;2023-10-08T11:24:41;7.38;;;2.38;;
50932;SDS011;36921;49.006;9.292;2023-10-08T11:27:09;5.73;;;3.10;;
50932;SDS011;36921;49.006;9.292;2023-10-08T11:29:45;9.25;;;2.95;;
50932;SDS011;36921;49.006;9.292;2023-10-08T11:32:13;6.30;;;2.70;;
50932;SDS011;36921;49.006;9.292;2023-10-08T11:34:47;7.18;;;2.55;;
50932;SDS011;36921;49.006;9.292;2023-10-08T11:37:15;7.53;;;2.70;;
50932;SDS011;36921;49.006;9.292;2023-10-08T11:39:51;5.70;;;2.63;;
50932;SDS011;36921;49.006;9.292;2023-10-08T11:42:18;5.18;;;2.63;;
50932;SDS011;36921;49.006;9.292;2023-10-08T11:45:10;8.13;;;2.67;;
50932;SDS011;36921;49.006;9.292;2023-10-08T11:48:05;6.10;;;2.65;;
50932;SDS011;36921;49.006;9.292;2023-10-08T11:50:36;6.22;;;2.90;;
50932;SDS011;36921;49.006;9.292;2023-10-08T11:53:03;7.05;;;2.35;;
50932;SDS011;36921;49.006;9.292;2023-10-08T11:55:31;4.53;;;2.22;;
50932;SDS011;36921;49.006;9.292;2023-10-08T11:58:02;5.90;;;2.65;;
50932;SDS011;36921;49.006;9.292;2023-10-08T12:00:36;10.02;;;2.72;;
50932;SDS011;36921;49.006;9.292;2023-10-08T12:03:08;5.00;;;2.33;;
50932;SDS011;36921;49.006;9.292;2023-10-08T12:05:35;8.77;;;3.00;;
50932;SDS011;36921;49.006;9.292;2023-10-08T12:08:01;5.93;;;2.92;;
50932;SDS011;36921;49.006;9.292;2023-10-08T12:10:27;7.00;;;3.05;;
50932;SDS011;36921;49.006;9.292;2023-10-08T12:12:56;8.05;;;2.78;;
50932;SDS011;36921;49.006;9.292;2023-10-08T12:15:24;7.57;;;2.83;;
50932;SDS011;36921;49.006;9.292;2023-10-08T12:17:59;6.60;;;3.10;;
50932;SDS011;36921;49.006;9.292;2023-10-08T12:20:37;5.57;;;2.75;;
50932;SDS011;36921;49.006;9.292;2023-10-08T12:23:06;6.82;;;2.47;;
50932;SDS011;36921;49.006;9.292;2023-10-08T12:25:35;6.38;;;2.90;;
50932;SDS011;36921;49.006;9.292;2023-10-08T12:28:04;10.00;;;2.65;;
50932;SDS011;36921;49.006;9.292;2023-10-08T12:30:30;5.38;;;2.67;;
50932;SDS011;36921;49.006;9.292;2023-10-08T12:32:59;8.65;;;3.00;;
50932;SDS011;36921;49.006;9.292;2023-10-08T12:35:25;7.70;;;2.95;;
50932;SDS011;36921;49.006;9.292;2023-10-08T12:37:52;7.00;;;2.97;;
50932;SDS011;36921;49.006;9.292;2023-10-08T12:40:18;8.32;;;2.65;;
50932;SDS011;36921;49.006;9.292;2023-10-08T12:42:50;7.10;;;2.38;;
50932;SDS011;36921;49.006;9.292;2023-10-08T12:45:16;7.80;;;2.70;;
50932;SDS011;36921;49.006;9.292;2023-10-08T12:50:14;10.18;;;2.92;;
50932;SDS011;36921;49.006;9.292;2023-10-08T12:52:41;7.72;;;3.00;;
50932;SDS011;36921;49.006;9.292;2023-10-08T12:55:18;6.50;;;2.85;;
50932;SDS011;36921;49.006;9.292;2023-10-08T12:57:52;7.40;;;2.75;;
50932;SDS011;36921;49.006;9.292;2023-10-08T13:00:24;6.30;;;2.58;;
50932;SDS011;36921;49.006;9.292;2023-10-08T13:02:51;6.53;;;3.13;;
50932;SDS011;36921;49.006;9.292;2023-10-08T13:05:21;9.07;;;2.72;;
50932;SDS011;36921;49.006;9.292;2023-10-08T13:07:56;9.60;;;2.78;;
50932;SDS011;36921;49.006;9.292;2023-10-08T13:10:24;6.30;;;2.55;;
50932;SDS011;36921;49.006;9.292;2023-10-08T13:12:51;7.50;;;2.85;;
50932;SDS011;36921;49.006;9.292;2023-10-08T13:15:16;7.22;;;2.67;;
50932;SDS011;36921;49.006;9.292;2023-10-08T13:17:42;9.40;;;2.70;;
50932;SDS011;36921;49.006;9.292;2023-10-08T13:20:10;6.47;;;2.78;;
50932;SDS011;36921;49.006;9.292;2023-10-08T13:22:39;5.43;;;2.40;;
50932;SDS011;36921;49.006;9.292;2023-10-08T13:25:05;8.82;;;3.15;;
50932;SDS011;36921;49.006;9.292;2023-10-08T13:27:31;9.55;;;2.78;;
50932;SDS011;36921;49.006;9.292;2023-10-08T13:29:57;4.93;;;2.50;;
50932;SDS011;36921;49.006;9.292;2023-10-08T13:32:23;4.75;;;2.78;;
50932;SDS011;36921;49.006;9.292;2023-10-08T13:34:49;4.72;;;2.45;;
50932;SDS011;36921;49.006;9.292;2023-10-08T13:37:14;6.75;;;2.90;;
50932;SDS011;36921;49.006;9.292;2023-10-08T13:39:40;7.00;;;2.80;;
50932;SDS011;36921;49.006;9.292;2023-10-08T13:42:06;6.80;;;2.60;;
50932;SDS011;36921;49.006;9.292;2023-10-08T13:44:31;7.28;;;3.05;;
50932;SDS011;36921;49.006;9.292;2023-10-08T13:46:57;6.53;;;3.00;;
50932;SDS011;36921;49.006;9.292;2023-10-08T13:49:25;10.00;;;2.70;;
50932;SDS011;36921;49.006;9.292;2023-10-08T13:51:51;8.15;;;3.20;;
50932;SDS011;36921;49.006;9.292;2023-10-08T13:54:21;6.63;;;3.13;;
50932;SDS011;36921;49.006;9.292;2023-10-08T13:56:50;7.68;;;2.65;;
50932;SDS011;36921;49.006;9.292;2023-10-08T13:59:16;5.72;;;3.17;;
50932;SDS011;36921;49.006;9.292;2023-10-08T14:01:42;5.10;;;2.70;;
50932;SDS011;36921;49.006;9.292;2023-10-08T14:04:11;7.05;;;2.65;;
50932;SDS011;36921;49.006;9.292;2023-10-08T14:06:41;6.25;;;2.80;;
50932;SDS011;36921;49.006;9.292;2023-10-08T14:09:12;5.78;;;2.63;;
50932;SDS011;36921;49.006;9.292;2023-10-08T14:11:45;5.90;;;2.83;;
50932;SDS011;36921;49.006;9.292;2023-10-08T14:14:11;6.72;;;2.83;;
50932;SDS011;36921;49.006;9.292;2023-10-08T14:16:38;5.60;;;2.63;;
50932;SDS011;36921;49.006;9.292;2023-10-08T14:19:07;6.68;;;2.90;;
50932;SDS011;36921;49.006;9.292;2023-10-08T14:21:33;7.35;;;2.85;;
50932;SDS011;36921;49.006;9.292;2023-10-08T14:24:04;6.07;;;2.67;;
50932;SDS011;36921;49.006;9.292;2023-10-08T14:26:30;6.95;;;3.05;;
50932;SDS011;36921;49.006;9.292;2023-10-08T14:29:02;12.25;;;3.33;;
50932;SDS011;36921;49.006;9.292;2023-10-08T14:31:39;5.55;;;2.95;;
50932;SDS011;36921;49.006;9.292;2023-10-08T14:34:07;8.02;;;2.83;;
50932;SDS011;36921;49.006;9.292;2023-10-08T14:36:41;9.20;;;3.45;;
50932;SDS011;36921;49.006;9.292;2023-10-08T14:39:26;8.18;;;3.25;;
50932;SDS011;36921;49.006;9.292;2023-10-08T14:42:10;11.70;;;3.05;;
50932;SDS011;36921;49.006;9.292;2023-10-08T14:44:54;7.93;;;2.95;;
50932;SDS011;36921;49.006;9.292;2023-10-08T14:47:19;9.50;;;3.05;;
50932;SDS011;36921;49.006;9.292;2023-10-08T14:49:45;7.68;;;3.15;;
50932;SDS011;36921;49.006;9.292;2023-10-08T14:52:13;10.75;;;2.70;;
50932;SDS011;36921;49.006;9.292;2023-10-08T14:54:38;9.98;;;2.97;;
50932;SDS011;36921;49.006;9.292;2023-10-08T14:57:04;11.40;;;3.20;;
50932;SDS011;36921;49.006;9.292;2023-10-08T14:59:30;7.35;;;2.85;;
50932;SDS011;36921;49.006;9.292;2023-10-08T15:01:57;8.93;;;2.88;;
50932;SDS011;36921;49.006;9.292;2023-10-08T15:04:23;9.65;;;2.95;;
50932;SDS011;36921;49.006;9.292;2023-10-08T15:06:51;6.78;;;2.75;;
50932;SDS011;36921;49.006;9.292;2023-10-08T15:09:16;9.13;;;2.55;;
50932;SDS011;36921;49.006;9.292;2023-10-08T15:11:47;8.15;;;3.13;;
50932;SDS011;36921;49.006;9.292;2023-10-08T15:14:13;10.55;;;3.20;;
50932;SDS011;36921;49.006;9.292;2023-10-08T15:16:41;9.30;;;3.10;;
50932;SDS011;36921;49.006;9.292;2023-10-08T15:19:06;7.28;;;2.78;;
50932;SDS011;36921;49.006;9.292;2023-10-08T15:21:37;7.38;;;2.58;;
50932;SDS011;36921;49.006;9.292;2023-10-08T15:24:04;7.18;;;2.95;;
50932;SDS011;36921;49.006;9.292;2023-10-08T15:26:34;12.63;;;3.22;;
50932;SDS011;36921;49.006;9.292;2023-10-08T15:28:59;9.32;;;2.88;;
50932;SDS011;36921;49.006;9.292;2023-10-08T15:31:26;9.07;;;3.08;;
50932;SDS011;36921;49.006;9.292;2023-10-08T15:33:51;11.32;;;3.20;;
50932;SDS011;36921;49.006;9.292;2023-10-08T15:36:18;7.75;;;2.92;;
50932;SDS011;36921;49.006;9.292;2023-10-08T15:38:44;15.02;;;2.85;;